Open Full Screen Window  High Contrast Mode
Wind Gusting 00 knots
11
July 24, 2017 12:51 PM EDT
Weather Information
Wind Direction
  330 °
Wind Speed
  11 kt (13 mph)
Wind Gust
  00 kt (0 mph)
Altimeter
29.94 in
Visibility
10 SM
Temperature
24° C
75° F
Dewpoint
18° C
64° F
Humidity
69%
1hr Rain Fall
00.00 in.
24hr Rain Fall
00.87 in.
Sky Condition
Broken @ 4,500 ft
Broken @ 3,500 ft
Scattered @ 2,800 ft
VFR

METAR KDLZ 241651Z AUTO 33011KT 10SM SCT028 BKN035 BKN045 24/18 A2994 RMK AO2

*Background is not an actual portrayal of the airport.